Portada
METAR-TAF:

METAR-TAF

Aeroports :

Phetchabun, Tailàndia

latitud: 16-40-33N, longitud: 101-11-42E, altitud: 137 m

Observació

L'informe es va fer fa 1 hora i 6 minuts, a les 23:00 UTC
Vent 2 kt del Est/Sud-Est
Temperatura 26°C
Humitat 84%
Pressió 1006 hPa
Visibilitat: 5000 m
Escasses núvols a una alçada de 2500 ft
boirina

METAR: VTPB 212300Z 11002KT 5000 BR FEW025 26/23 Q1006 NOSIG

Hora: 07:06 (00:06 UTC)

Pronòstic

L'informe es va fer fa 1 hora i 6 minuts, a les 23:00 UTC
Pronòstic vàlid del 22 a les 00 UTC al 22 a les 24 UTC
Vent 5 kt del Sud
Visibilitat: 7000 m
Evolucionant progressivament
l' 22 a les 02 UTC al 22 a les 04 UTC
Visibilitat 10 km o més
Escasses núvols a una alçada de 2500 ft

TAF: VTPB 212300Z 2200/2224 18005KT 7000 NSC BECMG 2202/2204 9999 FEW025

Observacions i pronòstics meteorològics de més de 4000 aeroports (METAR i TAF).

Les estacions disponibles són els punts grocs i vermells al mapa.

Posi el ratolí al punt desitjat per veure el nom de l'estació.

Feu clic per veure les observacions i els pronòstics meteorològics.

Per canviar el mapa: feu clic els botons verds amb una creu de color negre per apropar; al botó verd amb un guió per allunyar la imatge; o en les fletxes verdes per a mapes adjacents.


METAR-TAF: